Time;durP1;ratioP1;P1;durP2;ratioP2;P2;SDS_P1;SDS_P2;PMS_P1;PMS_P2;Temp;Humidity;BMP_temperature;BMP_pressure;BME280_temperature;BME280_humidity;BME280_pressure;Samples;Min_cycle;Max_cycle;Signal;HPM_P1;HPM_P2
2021/08/06 00:00:40;;;;;;;9.57;5.80;;;;;;;;;;4346410;33;20166;-80
2021/08/06 00:03:06;;;;;;;7.45;6.05;;;;;;;;;;4346240;33;20220;-80
2021/08/06 00:05:32;;;;;;;8.32;6.00;;;;;;;;;;4346426;33;20167;-80
2021/08/06 00:07:57;;;;;;;6.30;5.37;;;;;;;;;;4350203;33;20574;-81
2021/08/06 00:10:32;;;;;;;8.70;5.10;;;;;;;;;;4358592;32;20201;-80
2021/08/06 00:13:00;;;;;;;8.50;5.25;;;;;;;;;;4359082;32;20174;-81
2021/08/06 00:15:28;;;;;;;6.72;4.90;;;;;;;;;;4358529;32;20194;-80
2021/08/06 00:18:06;;;;;;;7.70;5.40;;;;;;;;;;4358487;32;20185;-81
2021/08/06 00:20:35;;;;;;;6.80;5.22;;;;;;;;;;4359163;32;20201;-80
2021/08/06 00:23:02;;;;;;;6.30;4.62;;;;;;;;;;4358546;32;20213;-81
2021/08/06 00:25:27;;;;;;;6.57;4.57;;;;;;;;;;4358917;32;20163;-80
2021/08/06 00:27:53;;;;;;;7.25;4.30;;;;;;;;;;4358243;32;20185;-80
2021/08/06 00:30:18;;;;;;;6.85;4.30;;;;;;;;;;4345992;32;20520;-81
2021/08/06 00:32:44;;;;;;;8.25;4.62;;;;;;;;;;4358601;32;20159;-80
2021/08/06 00:35:09;;;;;;;5.35;4.18;;;;;;;;;;4358790;32;20592;-80
2021/08/06 00:37:43;;;;;;;9.18;4.80;;;;;;;;;;4358259;32;20279;-82
2021/08/06 00:40:09;;;;;;;5.55;4.15;;;;;;;;;;4359085;32;20155;-82
2021/08/06 00:42:35;;;;;;;9.57;4.32;;;;;;;;;;4358125;32;20500;-82
2021/08/06 00:45:28;;;;;;;5.57;4.12;;;;;;;;;;4358748;32;20182;-81
2021/08/06 00:48:37;;;;;;;4.12;3.72;;;;;;;;;;4354898;33;20184;-81
2021/08/06 00:51:02;;;;;;;6.75;3.67;;;;;;;;;;4358590;32;20174;-81
2021/08/06 00:53:27;;;;;;;4.12;3.28;;;;;;;;;;4345670;33;20248;-81
2021/08/06 00:55:53;;;;;;;6.93;3.90;;;;;;;;;;4333567;33;20629;-82
2021/08/06 00:58:18;;;;;;;5.18;3.40;;;;;;;;;;4345688;33;20623;-81
2021/08/06 01:00:56;;;;;;;5.03;3.47;;;;;;;;;;4345651;33;20156;-82
2021/08/06 01:03:23;;;;;;;5.43;3.50;;;;;;;;;;4345868;33;20216;-82
2021/08/06 01:06:18;;;;;;;5.40;3.85;;;;;;;;;;4346284;33;20568;-81
2021/08/06 01:09:09;;;;;;;5.93;4.35;;;;;;;;;;4347739;32;20217;-81
2021/08/06 01:11:35;;;;;;;4.70;3.53;;;;;;;;;;4346801;32;20151;-81
2021/08/06 01:14:03;;;;;;;6.12;3.92;;;;;;;;;;4345976;33;20213;-81
2021/08/06 01:16:32;;;;;;;5.53;3.58;;;;;;;;;;4345363;32;20189;-81
2021/08/06 01:19:31;;;;;;;3.62;3.05;;;;;;;;;;4345527;33;20283;-81
2021/08/06 01:22:07;;;;;;;7.15;3.42;;;;;;;;;;4345588;32;20190;-82
2021/08/06 01:24:44;;;;;;;5.37;3.67;;;;;;;;;;4358608;32;20150;-81
2021/08/06 01:27:10;;;;;;;6.15;3.53;;;;;;;;;;4363849;32;20212;-82
2021/08/06 01:29:39;;;;;;;5.85;3.22;;;;;;;;;;4358171;32;20483;-82
2021/08/06 01:32:04;;;;;;;4.03;3.42;;;;;;;;;;4358994;32;20152;-81
2021/08/06 01:34:41;;;;;;;4.47;2.83;;;;;;;;;;4357711;32;20273;-82
2021/08/06 01:37:13;;;;;;;3.55;3.00;;;;;;;;;;4358232;32;20167;-81
2021/08/06 01:40:05;;;;;;;6.00;3.22;;;;;;;;;;4358267;32;20190;-81
2021/08/06 01:45:40;;;;;;;4.20;3.33;;;;;;;;;;4370166;32;20163;-81
2021/08/06 01:48:10;;;;;;;4.18;2.85;;;;;;;;;;4357666;32;20151;-81
2021/08/06 01:50:58;;;;;;;;;;;;;;;;;;;;;
2021/08/06 01:53:34;;;;;;;3.05;2.50;;;;;;;;;;4359337;33;20155;-80
2021/08/06 01:56:07;;;;;;;5.62;2.62;;;;;;;;;;4358042;32;20217;-80
2021/08/06 01:58:49;;;;;;;3.28;2.55;;;;;;;;;;4345649;32;20257;-81
2021/08/06 02:04:29;;;;;;;3.42;2.60;;;;;;;;;;4352613;32;20155;-81
2021/08/06 02:07:03;;;;;;;3.70;2.58;;;;;;;;;;4345381;32;20488;-81
2021/08/06 02:10:05;;;;;;;;;;;;;;;;;;;;;
2021/08/06 02:12:26;;;;;;;4.47;2.72;;;;;;;;;;4360395;32;20158;-81
2021/08/06 02:14:51;;;;;;;3.85;2.60;;;;;;;;;;4344244;33;20208;-81
2021/08/06 02:17:27;;;;;;;3.53;2.70;;;;;;;;;;4344813;33;20156;-81
2021/08/06 02:19:53;;;;;;;3.87;2.55;;;;;;;;;;4344956;33;20527;-81
2021/08/06 02:22:25;;;;;;;6.78;2.72;;;;;;;;;;4344522;32;20171;-82
2021/08/06 02:24:50;;;;;;;4.93;2.80;;;;;;;;;;4358322;32;20256;-82
2021/08/06 02:27:28;;;;;;;4.05;2.90;;;;;;;;;;4356925;32;20159;-82
2021/08/06 02:29:56;;;;;;;3.62;2.35;;;;;;;;;;4357011;32;20151;-82
2021/08/06 02:32:22;;;;;;;3.45;2.30;;;;;;;;;;4357376;32;20176;-82
2021/08/06 02:34:48;;;;;;;3.72;2.25;;;;;;;;;;4354843;32;20576;-83
2021/08/06 02:37:15;;;;;;;4.47;2.40;;;;;;;;;;4358054;32;20574;-82
2021/08/06 02:39:40;;;;;;;4.10;2.47;;;;;;;;;;4344597;32;20156;-82
2021/08/06 02:42:06;;;;;;;3.53;2.30;;;;;;;;;;4344394;33;20290;-81
2021/08/06 02:44:34;;;;;;;5.87;2.10;;;;;;;;;;4345055;32;20204;-81
2021/08/06 02:46:59;;;;;;;5.05;2.53;;;;;;;;;;4344948;32;20221;-80
2021/08/06 02:49:30;;;;;;;3.53;2.20;;;;;;;;;;4332176;32;20603;-81
2021/08/06 02:51:56;;;;;;;2.92;2.10;;;;;;;;;;4333079;32;20225;-81
2021/08/06 02:54:21;;;;;;;4.95;2.25;;;;;;;;;;4332571;32;20181;-82
2021/08/06 02:57:10;;;;;;;2.37;1.85;;;;;;;;;;4344572;32;20171;-83
2021/08/06 02:59:36;;;;;;;3.75;2.50;;;;;;;;;;4344034;32;20226;-83
2021/08/06 03:02:10;;;;;;;5.05;2.90;;;;;;;;;;4344819;32;20604;-82
2021/08/06 03:04:46;;;;;;;3.05;2.70;;;;;;;;;;4344941;32;20162;-82
2021/08/06 03:07:22;;;;;;;3.28;2.70;;;;;;;;;;4358502;32;20192;-81
2021/08/06 03:09:51;;;;;;;3.95;3.05;;;;;;;;;;4334350;32;20458;-82
2021/08/06 03:12:16;;;;;;;5.95;3.33;;;;;;;;;;4344810;32;20220;-82
2021/08/06 03:14:49;;;;;;;5.35;3.37;;;;;;;;;;4344738;32;20582;-82
2021/08/06 03:17:17;;;;;;;4.90;3.62;;;;;;;;;;4344409;32;20622;-82
2021/08/06 03:19:42;;;;;;;5.78;3.42;;;;;;;;;;4344459;32;20638;-82
2021/08/06 03:22:11;;;;;;;5.07;3.20;;;;;;;;;;4344163;32;20155;-82
2021/08/06 03:27:31;;;;;;;3.62;2.90;;;;;;;;;;4349206;32;20453;-81
2021/08/06 03:32:42;;;;;;;5.43;3.50;;;;;;;;;;4356490;32;20205;-81
2021/08/06 03:35:08;;;;;;;6.65;2.95;;;;;;;;;;4359216;32;20600;-81
2021/08/06 03:37:44;;;;;;;;;;;;;;;;;;;;;
2021/08/06 03:40:13;;;;;;;3.70;2.97;;;;;;;;;;4348904;32;20182;-81
2021/08/06 03:42:39;;;;;;;4.28;3.15;;;;;;;;;;4368882;32;20169;-81
2021/08/06 03:45:05;;;;;;;4.43;3.28;;;;;;;;;;4358014;32;20218;-81
2021/08/06 03:47:30;;;;;;;5.82;3.10;;;;;;;;;;4356619;32;20162;-82
2021/08/06 03:49:56;;;;;;;4.25;3.20;;;;;;;;;;4357668;32;20181;-82
2021/08/06 03:52:21;;;;;;;5.25;3.65;;;;;;;;;;4356934;32;20638;-81
2021/08/06 03:54:47;;;;;;;4.40;3.60;;;;;;;;;;4356621;32;20149;-80
2021/08/06 03:57:12;;;;;;;4.35;3.15;;;;;;;;;;4357115;32;20606;-81
2021/08/06 04:01:14;;;;;;;4.05;3.30;;;;;;;;;;4356298;32;20180;-81
2021/08/06 04:09:11;;;;;;;5.22;3.92;;;;;;;;;;4422654;32;20491;-80
2021/08/06 04:11:37;;;;;;;5.60;3.28;;;;;;;;;;4344811;32;20162;-80
2021/08/06 04:14:03;;;;;;;4.32;3.45;;;;;;;;;;4357527;32;20201;-81
2021/08/06 04:16:30;;;;;;;4.57;3.40;;;;;;;;;;4356326;32;20153;-81
2021/08/06 04:18:58;;;;;;;4.93;3.45;;;;;;;;;;4356668;32;20202;-81
2021/08/06 04:21:24;;;;;;;5.00;3.12;;;;;;;;;;4356571;32;20177;-81
2021/08/06 04:23:49;;;;;;;3.45;3.15;;;;;;;;;;4405780;32;20586;-79
2021/08/06 04:26:14;;;;;;;5.65;3.42;;;;;;;;;;4423892;32;20157;-80
2021/08/06 04:28:43;;;;;;;3.92;3.53;;;;;;;;;;4423269;32;20278;-80
2021/08/06 04:31:26;;;;;;;4.22;3.10;;;;;;;;;;4423510;32;20173;-81
2021/08/06 04:34:14;;;;;;;4.60;3.97;;;;;;;;;;4424316;32;20165;-82
2021/08/06 04:36:42;;;;;;;4.20;3.30;;;;;;;;;;4424383;32;20184;-81
2021/08/06 04:39:08;;;;;;;3.95;3.20;;;;;;;;;;4423816;32;20586;-82
2021/08/06 04:41:36;;;;;;;6.43;3.35;;;;;;;;;;4423428;32;20153;-81
2021/08/06 04:44:01;;;;;;;6.65;3.47;;;;;;;;;;4423295;32;20161;-81
2021/08/06 04:46:26;;;;;;;3.55;3.10;;;;;;;;;;4422181;32;20157;-81
2021/08/06 04:48:57;;;;;;;3.50;2.83;;;;;;;;;;4423271;32;20197;-80
2021/08/06 04:51:22;;;;;;;3.95;2.85;;;;;;;;;;4423254;32;20205;-81
2021/08/06 04:53:48;;;;;;;4.50;3.17;;;;;;;;;;4423443;32;20153;-81
2021/08/06 04:56:13;;;;;;;4.57;2.80;;;;;;;;;;4423036;32;20161;-81
2021/08/06 04:58:41;;;;;;;4.00;3.08;;;;;;;;;;4423082;32;20226;-81
2021/08/06 05:01:13;;;;;;;4.82;2.87;;;;;;;;;;4423437;32;20154;-81
2021/08/06 05:03:41;;;;;;;8.98;3.60;;;;;;;;;;4423262;32;20157;-81
2021/08/06 05:06:07;;;;;;;5.37;3.00;;;;;;;;;;4414126;32;20184;-80
2021/08/06 05:08:32;;;;;;;3.92;2.90;;;;;;;;;;4408147;32;20197;-76
2021/08/06 05:10:57;;;;;;;5.20;3.20;;;;;;;;;;4407493;32;20234;-80
2021/08/06 05:13:23;;;;;;;4.43;2.97;;;;;;;;;;4407523;32;20229;-82
2021/08/06 05:15:48;;;;;;;4.50;3.10;;;;;;;;;;4407593;32;20192;-81
2021/08/06 05:18:14;;;;;;;6.00;3.17;;;;;;;;;;4408054;32;20184;-81
2021/08/06 05:20:47;;;;;;;6.97;3.30;;;;;;;;;;4408098;32;20634;-81
2021/08/06 05:23:17;;;;;;;8.52;3.22;;;;;;;;;;4380769;32;20664;-80
2021/08/06 05:25:56;;;;;;;4.10;3.12;;;;;;;;;;4357917;32;20198;-81
2021/08/06 05:28:23;;;;;;;6.20;3.05;;;;;;;;;;4360205;32;20207;-83
2021/08/06 05:31:03;;;;;;;6.70;2.95;;;;;;;;;;4357560;32;20159;-82
2021/08/06 05:33:28;;;;;;;5.60;3.12;;;;;;;;;;4357882;32;20189;-81
2021/08/06 05:36:05;;;;;;;7.25;2.87;;;;;;;;;;4353106;32;20167;-82
2021/08/06 05:38:39;;;;;;;7.32;3.20;;;;;;;;;;4342209;32;20189;-82
2021/08/06 05:41:12;;;;;;;4.30;2.58;;;;;;;;;;4342831;33;20212;-81
2021/08/06 05:43:44;;;;;;;4.43;2.80;;;;;;;;;;4342782;32;20151;-81
2021/08/06 05:46:09;;;;;;;5.32;3.25;;;;;;;;;;4342527;32;20164;-76
2021/08/06 05:48:40;;;;;;;5.05;3.25;;;;;;;;;;4342894;32;20251;-82
2021/08/06 05:51:05;;;;;;;6.53;3.12;;;;;;;;;;4343221;32;20151;-82
2021/08/06 05:53:38;;;;;;;7.37;3.20;;;;;;;;;;4342688;32;20552;-81
2021/08/06 05:56:07;;;;;;;4.65;2.85;;;;;;;;;;4343026;33;20186;-81
2021/08/06 05:58:48;;;;;;;5.10;3.20;;;;;;;;;;4342560;32;20648;-81
2021/08/06 06:01:16;;;;;;;4.62;3.28;;;;;;;;;;4354115;32;20216;-82
2021/08/06 06:03:42;;;;;;;7.12;3.22;;;;;;;;;;4357130;32;20214;-82
2021/08/06 06:06:16;;;;;;;4.05;2.70;;;;;;;;;;4357053;32;20220;-81
2021/08/06 06:08:41;;;;;;;7.12;3.15;;;;;;;;;;4357192;32;20214;-83
2021/08/06 06:11:07;;;;;;;5.00;3.12;;;;;;;;;;4345522;33;20158;-80
2021/08/06 06:13:37;;;;;;;4.32;3.42;;;;;;;;;;4357107;32;20214;-83
2021/08/06 06:16:06;;;;;;;6.32;3.10;;;;;;;;;;4349647;32;20199;-82
2021/08/06 06:19:24;;;;;;;8.23;3.00;;;;;;;;;;4342555;32;20159;-81
2021/08/06 06:21:48;;;;;;;6.62;3.00;;;;;;;;;;4344096;33;20559;-82
2021/08/06 06:24:22;;;;;;;3.85;2.80;;;;;;;;;;4344908;32;20213;-82
2021/08/06 06:26:48;;;;;;;6.70;3.03;;;;;;;;;;4355911;32;20170;-81
2021/08/06 06:29:16;;;;;;;7.60;3.08;;;;;;;;;;4359425;32;20162;-82
2021/08/06 06:31:42;;;;;;;3.72;2.70;;;;;;;;;;4353541;33;20655;-81
2021/08/06 06:34:27;;;;;;;6.00;2.92;;;;;;;;;;4357910;32;20162;-82
2021/08/06 06:36:52;;;;;;;5.97;3.10;;;;;;;;;;4344589;33;20564;-82
2021/08/06 06:39:17;;;;;;;4.45;3.05;;;;;;;;;;4344452;33;20190;-82
2021/08/06 06:41:58;;;;;;;5.32;3.50;;;;;;;;;;4345011;33;20228;-83
2021/08/06 06:44:26;;;;;;;6.93;3.25;;;;;;;;;;4344042;33;20216;-83
2021/08/06 06:47:02;;;;;;;6.75;3.85;;;;;;;;;;4344434;32;20209;-81
2021/08/06 06:49:33;;;;;;;7.43;3.20;;;;;;;;;;4344821;32;20154;-82
2021/08/06 06:52:01;;;;;;;6.07;3.35;;;;;;;;;;4344350;32;20201;-82
2021/08/06 06:54:40;;;;;;;8.77;3.22;;;;;;;;;;4357996;32;20208;-82
2021/08/06 06:57:08;;;;;;;5.25;2.95;;;;;;;;;;4344685;32;20159;-80
2021/08/06 06:59:40;;;;;;;7.18;2.78;;;;;;;;;;4345262;32;20179;-81
2021/08/06 07:02:06;;;;;;;10.77;3.40;;;;;;;;;;4344441;32;20155;-83
2021/08/06 07:04:31;;;;;;;8.98;3.67;;;;;;;;;;4344671;32;20201;-84
2021/08/06 07:07:05;;;;;;;6.60;3.00;;;;;;;;;;4350804;32;20216;-83
2021/08/06 07:09:35;;;;;;;6.03;2.90;;;;;;;;;;4351700;33;20169;-84
2021/08/06 07:12:00;;;;;;;4.57;2.80;;;;;;;;;;4350110;32;20213;-81
2021/08/06 07:14:26;;;;;;;7.95;2.83;;;;;;;;;;4347792;33;20523;-81
2021/08/06 07:16:59;;;;;;;6.85;3.00;;;;;;;;;;4346548;33;20152;-81
2021/08/06 07:19:32;;;;;;;6.35;3.00;;;;;;;;;;4346796;32;20186;-82
2021/08/06 07:21:57;;;;;;;7.78;2.78;;;;;;;;;;4348339;32;20185;-82
2021/08/06 07:24:23;;;;;;;9.77;2.85;;;;;;;;;;4377177;32;20246;-80
2021/08/06 07:26:48;;;;;;;6.15;2.58;;;;;;;;;;4371556;32;20572;-79
2021/08/06 07:29:13;;;;;;;7.10;2.97;;;;;;;;;;4361505;32;20513;-79
2021/08/06 07:31:41;;;;;;;7.50;2.75;;;;;;;;;;4351244;33;20159;-81
2021/08/06 07:34:21;;;;;;;6.43;2.90;;;;;;;;;;4346476;32;20155;-81
2021/08/06 07:36:52;;;;;;;8.07;3.05;;;;;;;;;;4342928;33;20608;-83
2021/08/06 07:39:20;;;;;;;4.95;2.40;;;;;;;;;;4346013;33;20206;-81
2021/08/06 07:41:45;;;;;;;5.00;2.72;;;;;;;;;;4344929;33;20265;-79
2021/08/06 07:44:17;;;;;;;5.57;2.85;;;;;;;;;;4346598;33;20155;-81
2021/08/06 07:46:42;;;;;;;7.35;3.10;;;;;;;;;;4334657;32;20220;-80
2021/08/06 07:49:12;;;;;;;4.90;2.60;;;;;;;;;;4346212;33;20538;-80
2021/08/06 07:51:40;;;;;;;4.95;2.58;;;;;;;;;;4359723;33;20129;-80
2021/08/06 07:54:23;;;;;;;4.97;2.70;;;;;;;;;;4359711;32;20143;-80
2021/08/06 07:56:48;;;;;;;4.57;2.33;;;;;;;;;;4346533;32;20246;-78
2021/08/06 07:59:19;;;;;;;6.32;2.37;;;;;;;;;;4345712;33;20159;-81
2021/08/06 08:01:45;;;;;;;7.20;2.75;;;;;;;;;;4346423;32;20143;-81
2021/08/06 08:04:11;;;;;;;7.28;2.60;;;;;;;;;;4345786;33;20572;-80
2021/08/06 08:06:57;;;;;;;6.47;1.83;;;;;;;;;;4345269;32;20204;-80
2021/08/06 08:09:21;;;;;;;4.85;2.03;;;;;;;;;;4359110;32;20538;-78
2021/08/06 08:11:48;;;;;;;6.87;2.10;;;;;;;;;;4346002;32;20155;-80
2021/08/06 08:14:13;;;;;;;5.97;2.30;;;;;;;;;;4345252;32;20182;-80
2021/08/06 08:16:39;;;;;;;4.32;2.15;;;;;;;;;;4344653;32;20170;-80
2021/08/06 08:19:04;;;;;;;4.57;2.00;;;;;;;;;;4345603;32;20548;-81
2021/08/06 08:21:32;;;;;;;5.18;2.20;;;;;;;;;;4358584;32;20136;-80
2021/08/06 08:24:15;;;;;;;4.62;1.90;;;;;;;;;;4349483;32;20257;-74
2021/08/06 08:26:40;;;;;;;4.47;1.87;;;;;;;;;;4345469;33;20204;-80
2021/08/06 08:29:05;;;;;;;3.03;1.87;;;;;;;;;;4345580;33;20540;-76
2021/08/06 08:31:31;;;;;;;6.97;2.20;;;;;;;;;;4344354;33;20155;-79
2021/08/06 08:33:56;;;;;;;5.97;2.60;;;;;;;;;;4343995;32;20178;-81
2021/08/06 08:36:21;;;;;;;5.95;1.73;;;;;;;;;;4347524;33;20241;-80
2021/08/06 08:38:54;;;;;;;4.00;2.00;;;;;;;;;;4357056;32;20535;-80
2021/08/06 08:41:22;;;;;;;4.40;2.12;;;;;;;;;;4348594;32;20174;-80
2021/08/06 08:43:48;;;;;;;5.75;1.75;;;;;;;;;;4357929;32;20155;-82
2021/08/06 08:46:14;;;;;;;10.85;3.40;;;;;;;;;;4346364;32;20658;-80
2021/08/06 08:48:39;;;;;;;6.72;2.40;;;;;;;;;;4354105;32;20140;-81
2021/08/06 08:51:05;;;;;;;6.60;1.92;;;;;;;;;;4345996;33;20177;-78
2021/08/06 08:53:33;;;;;;;9.20;2.37;;;;;;;;;;4344976;32;20162;-81
2021/08/06 08:55:59;;;;;;;3.35;2.12;;;;;;;;;;4345241;33;20473;-79
2021/08/06 08:58:24;;;;;;;5.22;2.50;;;;;;;;;;4345884;33;20159;-79
2021/08/06 09:00:49;;;;;;;3.10;2.25;;;;;;;;;;4345434;33;20182;-81
2021/08/06 09:03:34;;;;;;;4.35;2.15;;;;;;;;;;4346513;32;20470;-77
2021/08/06 09:05:59;;;;;;;3.28;2.05;;;;;;;;;;4351049;32;20139;-80
2021/08/06 09:08:27;;;;;;;4.33;1.90;;;;;;;;;;4344815;33;20219;-79
2021/08/06 09:10:52;;;;;;;5.40;2.00;;;;;;;;;;4343015;32;20337;-79
2021/08/06 09:13:21;;;;;;;5.27;2.37;;;;;;;;;;4345266;33;20475;-80
2021/08/06 09:15:54;;;;;;;7.78;2.50;;;;;;;;;;4345165;33;20247;-82
2021/08/06 09:18:41;;;;;;;5.90;2.80;;;;;;;;;;4358760;33;20170;-81
2021/08/06 09:21:18;;;;;;;5.25;1.92;;;;;;;;;;4333937;32;20647;-78
2021/08/06 09:23:49;;;;;;;5.57;1.73;;;;;;;;;;4351284;32;20206;-82
2021/08/06 09:26:26;;;;;;;6.85;2.53;;;;;;;;;;4346558;32;20189;-80
2021/08/06 09:29:09;;;;;;;4.80;1.90;;;;;;;;;;4357408;32;20147;-80
2021/08/06 09:31:39;;;;;;;6.15;1.95;;;;;;;;;;4344673;32;20668;-80
2021/08/06 09:34:08;;;;;;;4.28;1.90;;;;;;;;;;4345560;33;20255;-80
2021/08/06 09:36:36;;;;;;;3.45;1.80;;;;;;;;;;4346047;33;20217;-82
2021/08/06 09:39:17;;;;;;;6.07;1.80;;;;;;;;;;4344926;32;20155;-80
2021/08/06 09:41:44;;;;;;;5.78;2.22;;;;;;;;;;4344930;33;20151;-79
2021/08/06 09:44:23;;;;;;;5.55;2.70;;;;;;;;;;4345273;33;20151;-79
2021/08/06 09:57:20;;;;;;;4.00;2.10;;;;;;;;;;4438521;32;20171;-79
2021/08/06 10:02:54;;;;;;;4.97;2.00;;;;;;;;;;4446259;27;20232;-80
2021/08/06 10:05:23;;;;;;;4.53;2.12;;;;;;;;;;4407693;32;20159;-80
2021/08/06 10:08:06;;;;;;;4.50;2.00;;;;;;;;;;4403075;32;20304;-82
2021/08/06 10:13:48;;;;;;;5.45;1.85;;;;;;;;;;4399669;32;20588;-81
2021/08/06 10:25:45;;;;;;;3.83;2.17;;;;;;;;;;4388650;32;20161;-80
2021/08/06 10:28:17;;;;;;;3.30;2.10;;;;;;;;;;4401928;32;20542;-79
2021/08/06 10:31:24;;;;;;;4.53;2.10;;;;;;;;;;4400978;32;20154;-78
2021/08/06 10:37:07;;;;;;;3.28;1.90;;;;;;;;;;4362667;32;20151;-77
2021/08/06 10:39:38;;;;;;;4.68;2.08;;;;;;;;;;4366140;32;20509;-78
2021/08/06 10:42:31;;;;;;;4.12;2.00;;;;;;;;;;4369618;32;20173;-77
2021/08/06 10:45:14;;;;;;;8.35;3.72;;;;;;;;;;4367307;32;20206;-77
2021/08/06 10:48:10;;;;;;;8.35;5.10;;;;;;;;;;4355686;32;20147;-78
2021/08/06 10:50:41;;;;;;;14.32;6.22;;;;;;;;;;4368793;32;20135;-78
2021/08/06 10:53:28;;;;;;;7.53;5.78;;;;;;;;;;4365058;32;20230;-80
2021/08/06 10:56:24;;;;;;;8.50;5.12;;;;;;;;;;4354432;33;20135;-81
2021/08/06 11:08:03;;;;;;;;;;;;;;;;;;;;;
2021/08/06 11:11:01;;;;;;;5.25;3.70;;;;;;;;;;4360233;33;20135;-73
2021/08/06 11:25:48;;;;;;;4.05;3.50;;;;;;;;;;4346089;33;20514;-80
2021/08/06 11:28:23;;;;;;;6.15;2.85;;;;;;;;;;4358985;32;20197;-80
2021/08/06 11:30:48;;;;;;;5.28;3.60;;;;;;;;;;4362135;32;20130;-79
2021/08/06 11:33:13;;;;;;;5.25;3.60;;;;;;;;;;4375966;32;20162;-80
2021/08/06 11:35:39;;;;;;;4.07;3.40;;;;;;;;;;4375331;32;20138;-79
2021/08/06 11:40:57;;;;;;;5.32;3.50;;;;;;;;;;4359680;33;20251;-77
2021/08/06 11:46:17;;;;;;;6.05;3.97;;;;;;;;;;4358818;32;20182;-78
2021/08/06 11:51:54;;;;;;;7.20;3.97;;;;;;;;;;4360523;32;20154;-78
2021/08/06 11:54:20;;;;;;;3.67;3.28;;;;;;;;;;4358621;33;20201;-78
2021/08/06 11:57:06;;;;;;;5.87;3.25;;;;;;;;;;4360173;32;20828;-77
2021/08/06 11:59:32;;;;;;;4.30;2.60;;;;;;;;;;4360639;33;20194;-77
2021/08/06 12:02:16;;;;;;;4.93;2.05;;;;;;;;;;4360829;32;20158;-78
2021/08/06 12:04:42;;;;;;;3.92;2.35;;;;;;;;;;4362464;32;20139;-79
2021/08/06 12:07:07;;;;;;;5.57;2.63;;;;;;;;;;4361730;32;20219;-78
2021/08/06 12:09:33;;;;;;;5.80;2.43;;;;;;;;;;4359507;32;20736;-77
2021/08/06 12:11:58;;;;;;;5.97;2.45;;;;;;;;;;4358111;32;20314;-77
2021/08/06 12:14:27;;;;;;;3.63;1.77;;;;;;;;;;4358652;32;20569;-77
2021/08/06 12:16:52;;;;;;;4.50;1.37;;;;;;;;;;4360369;32;20346;-78
2021/08/06 12:19:17;;;;;;;4.87;1.10;;;;;;;;;;4359878;32;20221;-78
2021/08/06 12:21:44;;;;;;;2.78;0.82;;;;;;;;;;4360799;32;20229;-75
2021/08/06 12:24:13;;;;;;;4.62;1.05;;;;;;;;;;4360720;32;20139;-77
2021/08/06 12:26:41;;;;;;;2.78;0.93;;;;;;;;;;4360519;32;20557;-76
2021/08/06 12:29:09;;;;;;;2.55;0.93;;;;;;;;;;4360450;32;20208;-78
2021/08/06 12:31:46;;;;;;;3.80;1.20;;;;;;;;;;4359906;32;20143;-78
2021/08/06 12:34:12;;;;;;;4.30;1.83;;;;;;;;;;4360842;32;20165;-78
2021/08/06 12:36:39;;;;;;;3.83;1.50;;;;;;;;;;4361925;32;20206;-78
2021/08/06 12:39:06;;;;;;;2.60;1.60;;;;;;;;;;4359531;32;20197;-79
2021/08/06 12:41:32;;;;;;;4.20;2.08;;;;;;;;;;4360391;32;20225;-77
2021/08/06 12:44:16;;;;;;;3.20;1.90;;;;;;;;;;4360971;32;20165;-77
2021/08/06 12:46:41;;;;;;;3.78;2.10;;;;;;;;;;4362430;32;20174;-78
2021/08/06 12:49:08;;;;;;;4.20;1.80;;;;;;;;;;4362036;32;20210;-77
2021/08/06 12:51:34;;;;;;;4.25;1.73;;;;;;;;;;4360480;32;20163;-78
2021/08/06 12:53:59;;;;;;;3.58;1.50;;;;;;;;;;4363350;32;20144;-78
2021/08/06 13:00:02;;;;;;;4.87;1.77;;;;;;;;;;4348885;33;20193;-79
2021/08/06 13:02:27;;;;;;;4.18;1.52;;;;;;;;;;4424802;27;20619;-80
2021/08/06 13:04:52;;;;;;;4.18;1.50;;;;;;;;;;4389860;32;20150;-78
2021/08/06 13:07:25;;;;;;;3.92;1.10;;;;;;;;;;4387871;32;20208;-79
2021/08/06 13:09:54;;;;;;;3.20;1.30;;;;;;;;;;4374614;32;20175;-79
2021/08/06 13:12:19;;;;;;;5.03;1.30;;;;;;;;;;4390144;32;20166;-78
2021/08/06 13:14:48;;;;;;;4.07;1.30;;;;;;;;;;4389882;32;20157;-78
2021/08/06 13:17:15;;;;;;;3.87;1.30;;;;;;;;;;4389941;32;20258;-76
2021/08/06 13:19:40;;;;;;;3.55;1.48;;;;;;;;;;4390260;32;20169;-79
2021/08/06 13:22:07;;;;;;;5.15;1.33;;;;;;;;;;4389345;32;20134;-78
2021/08/06 13:24:52;;;;;;;2.03;0.82;;;;;;;;;;4390339;32;20189;-78
2021/08/06 13:27:36;;;;;;;3.28;0.95;;;;;;;;;;4358443;33;20179;-82
2021/08/06 13:30:02;;;;;;;3.50;0.95;;;;;;;;;;4359261;32;20163;-79
2021/08/06 13:32:28;;;;;;;1.45;0.90;;;;;;;;;;4359809;33;20131;-82
2021/08/06 13:35:16;;;;;;;4.12;1.15;;;;;;;;;;4359450;33;20223;-82
2021/08/06 13:37:45;;;;;;;2.75;1.10;;;;;;;;;;4358641;33;20163;-81
2021/08/06 13:40:20;;;;;;;2.55;1.05;;;;;;;;;;4360100;32;20242;-80
2021/08/06 13:42:53;;;;;;;5.15;1.37;;;;;;;;;;4359119;32;20236;-80
2021/08/06 13:45:23;;;;;;;4.25;1.25;;;;;;;;;;4333156;33;20167;-82
2021/08/06 13:47:55;;;;;;;4.50;1.60;;;;;;;;;;4358093;33;20221;-80
2021/08/06 13:50:20;;;;;;;4.18;1.52;;;;;;;;;;4355746;32;20583;-82
2021/08/06 13:52:51;;;;;;;3.03;1.48;;;;;;;;;;4345026;33;20131;-82
2021/08/06 13:55:33;;;;;;;3.78;1.30;;;;;;;;;;4345506;33;20608;-80
2021/08/06 13:57:59;;;;;;;4.00;1.23;;;;;;;;;;4356791;33;20237;-81
2021/08/06 14:00:29;;;;;;;5.97;1.40;;;;;;;;;;4359128;33;20147;-79
2021/08/06 14:03:09;;;;;;;4.05;1.40;;;;;;;;;;4360494;32;20139;-81
2021/08/06 14:05:35;;;;;;;5.80;1.30;;;;;;;;;;4358717;32;20189;-80
2021/08/06 14:08:08;;;;;;;3.20;1.45;;;;;;;;;;4359887;33;20159;-81
2021/08/06 14:10:38;;;;;;;4.15;1.60;;;;;;;;;;4360038;33;20648;-81
2021/08/06 14:13:04;;;;;;;4.85;1.33;;;;;;;;;;4361498;32;20201;-81
2021/08/06 14:15:34;;;;;;;4.20;1.27;;;;;;;;;;4359600;33;20179;-78
2021/08/06 14:17:59;;;;;;;5.60;1.58;;;;;;;;;;4346431;33;20205;-80
2021/08/06 14:20:25;;;;;;;2.35;1.02;;;;;;;;;;4346384;33;20156;-79
2021/08/06 14:22:50;;;;;;;6.47;1.65;;;;;;;;;;4359452;32;20159;-77
2021/08/06 14:25:15;;;;;;;3.47;1.12;;;;;;;;;;4358012;33;20171;-81
2021/08/06 14:27:40;;;;;;;1.93;1.13;;;;;;;;;;4346011;33;20251;-80
2021/08/06 14:30:06;;;;;;;4.85;1.25;;;;;;;;;;4360326;33;20223;-79
2021/08/06 14:32:40;;;;;;;4.60;1.58;;;;;;;;;;4359747;33;20147;-80
2021/08/06 14:35:06;;;;;;;5.78;1.37;;;;;;;;;;4361894;32;20131;-81
2021/08/06 14:37:37;;;;;;;6.62;1.50;;;;;;;;;;4361181;32;20159;-82
2021/08/06 14:40:02;;;;;;;3.05;1.25;;;;;;;;;;4362266;32;20127;-81
2021/08/06 14:42:28;;;;;;;3.75;1.30;;;;;;;;;;4362298;32;20563;-80
2021/08/06 14:44:53;;;;;;;7.50;1.30;;;;;;;;;;4360903;33;20497;-82
2021/08/06 14:47:18;;;;;;;4.53;1.33;;;;;;;;;;4362362;33;20194;-81
2021/08/06 14:49:46;;;;;;;4.45;1.30;;;;;;;;;;4362334;32;20153;-82
2021/08/06 14:52:11;;;;;;;2.83;1.02;;;;;;;;;;4359631;32;20143;-80
2021/08/06 14:54:36;;;;;;;5.85;1.50;;;;;;;;;;4347880;33;20140;-78
2021/08/06 14:57:03;;;;;;;7.10;1.70;;;;;;;;;;4347536;33;20559;-82
2021/08/06 14:59:28;;;;;;;5.87;1.60;;;;;;;;;;4333803;33;20214;-81
2021/08/06 15:01:54;;;;;;;5.10;1.70;;;;;;;;;;4344097;33;20342;-81
2021/08/06 15:04:23;;;;;;;5.47;1.98;;;;;;;;;;4361184;32;20552;-78
2021/08/06 15:06:48;;;;;;;5.45;1.77;;;;;;;;;;4361937;32;20158;-78
2021/08/06 15:09:13;;;;;;;6.18;1.60;;;;;;;;;;4360959;32;20146;-82
2021/08/06 15:11:39;;;;;;;6.85;1.80;;;;;;;;;;4360897;33;20635;-82
2021/08/06 15:14:05;;;;;;;10.63;2.00;;;;;;;;;;4359776;32;20159;-80
2021/08/06 15:16:31;;;;;;;8.40;2.03;;;;;;;;;;4359676;32;20563;-80
2021/08/06 15:18:56;;;;;;;6.90;2.00;;;;;;;;;;4357807;32;20174;-79
2021/08/06 15:21:21;;;;;;;7.18;2.05;;;;;;;;;;4359216;32;20198;-80
2021/08/06 15:23:47;;;;;;;8.00;2.12;;;;;;;;;;4361388;32;20139;-79
2021/08/06 15:26:12;;;;;;;9.45;3.05;;;;;;;;;;4361812;32;20553;-79
2021/08/06 15:28:37;;;;;;;9.07;2.30;;;;;;;;;;4361868;32;20159;-79
2021/08/06 15:31:05;;;;;;;4.60;1.55;;;;;;;;;;4361402;32;20135;-82
2021/08/06 15:33:30;;;;;;;5.70;1.77;;;;;;;;;;4361164;32;20143;-81
2021/08/06 15:35:56;;;;;;;5.78;1.65;;;;;;;;;;4360341;32;20623;-78
2021/08/06 15:38:22;;;;;;;5.65;1.58;;;;;;;;;;4348478;33;20163;-80
2021/08/06 15:40:47;;;;;;;7.03;2.00;;;;;;;;;;4348209;33;20646;-80
2021/08/06 15:43:12;;;;;;;4.65;1.65;;;;;;;;;;4361788;32;20158;-80
2021/08/06 15:45:39;;;;;;;8.20;2.25;;;;;;;;;;4348022;33;20194;-80
2021/08/06 15:48:04;;;;;;;6.25;2.05;;;;;;;;;;4347952;33;20163;-79
2021/08/06 15:50:30;;;;;;;9.45;2.20;;;;;;;;;;4361958;32;20131;-80
2021/08/06 15:52:57;;;;;;;7.82;2.08;;;;;;;;;;4347796;33;20213;-80
2021/08/06 15:55:22;;;;;;;9.48;2.00;;;;;;;;;;4361404;32;20666;-82
2021/08/06 15:57:56;;;;;;;7.70;2.05;;;;;;;;;;4363152;32;20583;-83
2021/08/06 16:00:21;;;;;;;8.13;2.10;;;;;;;;;;4364499;32;20153;-85
2021/08/06 16:02:48;;;;;;;9.85;2.45;;;;;;;;;;4364268;32;20132;-81
2021/08/06 16:05:14;;;;;;;9.98;2.45;;;;;;;;;;4350388;33;20207;-85
2021/08/06 16:07:39;;;;;;;6.55;2.40;;;;;;;;;;4356683;32;20264;-84
2021/08/06 16:10:05;;;;;;;9.10;2.58;;;;;;;;;;4362377;33;20131;-83
2021/08/06 16:12:35;;;;;;;7.62;1.90;;;;;;;;;;4362978;32;20185;-84
2021/08/06 16:15:06;;;;;;;10.48;2.40;;;;;;;;;;4362742;32;20155;-82
2021/08/06 16:17:31;;;;;;;9.60;2.47;;;;;;;;;;4348831;33;20174;-81
2021/08/06 16:19:57;;;;;;;6.55;2.05;;;;;;;;;;4361768;32;20131;-80
2021/08/06 16:22:22;;;;;;;6.55;2.05;;;;;;;;;;4360145;33;20143;-83
2021/08/06 16:24:48;;;;;;;14.93;2.67;;;;;;;;;;4359338;32;20223;-79